createdAt,value
2023-05-14T00:00:16.398Z,18.57
2023-05-14T00:02:43.650Z,17.73
2023-05-14T00:05:10.925Z,19.77
2023-05-14T00:07:38.100Z,18.57
2023-05-14T00:10:05.357Z,16.73
2023-05-14T00:12:32.534Z,16.23
2023-05-14T00:14:59.669Z,14.13
2023-05-14T00:17:26.833Z,15.50
2023-05-14T00:19:53.997Z,16.33
2023-05-14T00:22:21.129Z,15.37
2023-05-14T00:24:48.292Z,18.00
2023-05-14T00:27:15.414Z,16.77
2023-05-14T00:29:42.535Z,18.77
2023-05-14T00:32:09.651Z,18.87
2023-05-14T00:34:36.879Z,18.43
2023-05-14T00:37:04.016Z,16.80
2023-05-14T00:39:31.149Z,19.23
2023-05-14T00:41:58.269Z,19.40
2023-05-14T00:44:25.439Z,18.03
2023-05-14T00:46:52.663Z,18.23
2023-05-14T00:49:19.805Z,17.63
2023-05-14T00:51:47.130Z,16.07
2023-05-14T00:54:17.621Z,16.67
2023-05-14T00:56:45.967Z,16.43
2023-05-14T00:59:13.354Z,16.70
2023-05-14T01:01:40.586Z,18.83
2023-05-14T01:04:07.905Z,18.47
2023-05-14T01:06:47.195Z,19.47
2023-05-14T01:09:20.255Z,21.10
2023-05-14T01:12:05.886Z,20.70
2023-05-14T01:14:51.810Z,19.87
2023-05-14T01:17:22.892Z,19.43
2023-05-14T01:19:50.024Z,18.63
2023-05-14T01:22:17.134Z,17.90
2023-05-14T01:24:44.287Z,17.57
2023-05-14T01:27:12.707Z,18.63
2023-05-14T01:29:39.926Z,16.60
2023-05-14T01:32:07.478Z,16.63
2023-05-14T01:34:34.591Z,16.97
2023-05-14T01:37:01.729Z,16.33
2023-05-14T01:39:30.283Z,15.47
2023-05-14T01:41:57.467Z,15.13
2023-05-14T01:44:24.606Z,13.70
2023-05-14T01:46:51.760Z,14.57
2023-05-14T01:49:19.622Z,13.70
2023-05-14T01:51:46.716Z,14.67
2023-05-14T01:54:13.847Z,18.50
2023-05-14T01:56:40.929Z,18.00
2023-05-14T01:59:08.016Z,18.73
2023-05-14T02:01:35.485Z,18.63
2023-05-14T02:04:02.666Z,17.77
2023-05-14T02:06:29.875Z,18.20
2023-05-14T02:08:56.990Z,18.20
2023-05-14T02:11:24.139Z,16.97
2023-05-14T02:13:51.488Z,16.83
2023-05-14T02:16:19.320Z,16.90
2023-05-14T02:18:46.530Z,22.33
2023-05-14T02:21:13.721Z,19.43
2023-05-14T02:23:42.146Z,19.77
2023-05-14T02:26:10.185Z,22.30
2023-05-14T02:28:37.334Z,22.57
2023-05-14T02:31:04.483Z,20.67
2023-05-14T02:33:31.699Z,21.03
2023-05-14T02:35:58.866Z,23.27
2023-05-14T02:38:27.210Z,27.70
2023-05-14T02:40:54.344Z,25.30
2023-05-14T02:43:21.571Z,17.73
2023-05-14T02:45:48.687Z,19.10
2023-05-14T02:48:15.827Z,20.37
2023-05-14T02:50:42.912Z,19.63
2023-05-14T02:53:10.264Z,18.27
2023-05-14T02:55:37.417Z,16.70
2023-05-14T02:58:04.583Z,16.37
2023-05-14T03:00:31.862Z,16.97
2023-05-14T03:02:59.387Z,19.07
2023-05-14T03:05:26.880Z,21.83
2023-05-14T03:07:54.059Z,23.13
2023-05-14T03:10:21.388Z,21.07
2023-05-14T03:12:49.376Z,22.10
2023-05-14T03:15:16.493Z,19.37
2023-05-14T03:17:43.597Z,19.03
2023-05-14T03:20:11.167Z,18.80
2023-05-14T03:22:38.283Z,20.23
2023-05-14T03:25:05.534Z,19.97
2023-05-14T03:27:33.649Z,19.17
2023-05-14T03:30:00.924Z,19.83
2023-05-14T03:32:28.060Z,19.40
2023-05-14T03:34:55.672Z,19.40
2023-05-14T03:37:22.833Z,19.63
2023-05-14T03:39:49.943Z,19.13
2023-05-14T03:42:17.025Z,19.30
2023-05-14T03:44:44.265Z,19.67
2023-05-14T03:47:11.672Z,19.43
2023-05-14T03:49:38.781Z,24.03
2023-05-14T03:52:05.993Z,21.00
2023-05-14T03:54:33.124Z,20.63
2023-05-14T03:57:00.195Z,20.97
2023-05-14T03:59:27.310Z,22.57
2023-05-14T04:01:54.598Z,21.80
2023-05-14T04:04:21.774Z,23.33
2023-05-14T04:06:48.978Z,26.63
2023-05-14T04:09:16.085Z,26.50
2023-05-14T04:11:43.197Z,27.40
2023-05-14T04:14:10.353Z,28.00
2023-05-14T04:16:37.558Z,30.13
2023-05-14T04:19:05.783Z,33.93
2023-05-14T04:21:33.014Z,33.63
2023-05-14T04:24:00.214Z,31.67
2023-05-14T04:26:27.389Z,29.27
2023-05-14T04:28:54.537Z,27.13
2023-05-14T04:31:21.698Z,26.60
2023-05-14T04:33:48.866Z,23.27
2023-05-14T04:36:16.115Z,23.23
2023-05-14T04:38:43.198Z,24.60
2023-05-14T04:41:10.304Z,25.77
2023-05-14T04:43:37.541Z,24.10
2023-05-14T04:46:05.379Z,21.83
2023-05-14T04:48:32.654Z,23.77
2023-05-14T04:50:59.793Z,23.10
2023-05-14T04:53:26.975Z,23.93
2023-05-14T04:55:54.193Z,22.30
2023-05-14T04:58:23.209Z,18.83
2023-05-14T05:00:50.654Z,15.67
2023-05-14T05:03:17.862Z,16.30
2023-05-14T05:05:45.095Z,14.03
2023-05-14T05:08:12.220Z,14.00
2023-05-14T05:10:39.363Z,13.55
2023-05-14T05:13:06.553Z,14.37
2023-05-14T05:15:33.702Z,13.23
2023-05-14T05:18:01.146Z,11.57
2023-05-14T05:20:28.910Z,11.77
2023-05-14T05:22:56.098Z,13.15
2023-05-14T05:25:23.206Z,12.25
2023-05-14T05:27:50.340Z,11.13
2023-05-14T05:30:17.452Z,11.20
2023-05-14T05:32:44.581Z,10.90
2023-05-14T05:35:11.729Z,10.95
2023-05-14T05:37:38.835Z,9.43
2023-05-14T05:40:06.879Z,10.15
2023-05-14T05:42:34.035Z,10.88
2023-05-14T05:45:01.183Z,11.25
2023-05-14T05:47:28.397Z,13.10
2023-05-14T05:49:55.559Z,13.45
2023-05-14T05:52:22.700Z,10.32
2023-05-14T05:54:49.851Z,9.65
2023-05-14T05:57:17.005Z,8.45
2023-05-14T05:59:44.197Z,8.15
2023-05-14T06:02:11.422Z,8.40
2023-05-14T06:04:38.617Z,8.63
2023-05-14T06:07:05.741Z,9.32
2023-05-14T06:09:32.878Z,9.10
2023-05-14T06:12:00.002Z,9.68
2023-05-14T06:14:27.124Z,8.50
2023-05-14T06:16:54.315Z,8.10
2023-05-14T06:19:22.455Z,6.70
2023-05-14T06:21:49.635Z,6.40
2023-05-14T06:24:16.751Z,5.82
2023-05-14T06:26:43.932Z,7.45
2023-05-14T06:29:11.086Z,7.07
2023-05-14T06:31:38.246Z,5.97
2023-05-14T06:34:05.406Z,6.32
2023-05-14T06:36:32.554Z,6.55
2023-05-14T06:38:59.668Z,7.85
2023-05-14T06:41:26.868Z,7.20
2023-05-14T06:43:54.038Z,7.47
2023-05-14T06:46:21.165Z,7.70
2023-05-14T06:48:48.321Z,7.70
2023-05-14T06:51:15.411Z,7.15
2023-05-14T06:53:42.535Z,7.53
2023-05-14T06:56:09.695Z,7.30
2023-05-14T06:58:36.805Z,7.47
2023-05-14T07:01:03.943Z,7.45
2023-05-14T07:03:31.165Z,7.13
2023-05-14T07:05:58.318Z,6.78
2023-05-14T07:08:25.862Z,6.72
2023-05-14T07:10:52.997Z,6.32
2023-05-14T07:13:20.110Z,6.57
2023-05-14T07:15:47.196Z,6.10
2023-05-14T07:18:14.363Z,5.72
2023-05-14T07:20:41.537Z,13.25
2023-05-14T07:23:08.715Z,5.60
2023-05-14T07:25:35.882Z,5.13
2023-05-14T07:28:03.164Z,5.53
2023-05-14T07:30:30.242Z,4.53
2023-05-14T07:32:57.470Z,5.22
2023-05-14T07:35:24.581Z,4.78
2023-05-14T07:37:51.750Z,4.38
2023-05-14T07:40:20.244Z,4.57
2023-05-14T07:42:47.345Z,4.03
2023-05-14T07:45:14.485Z,3.88
2023-05-14T07:47:41.771Z,3.78
2023-05-14T07:50:09.218Z,4.13
2023-05-14T07:52:36.336Z,4.18
2023-05-14T07:55:03.856Z,3.60
2023-05-14T07:57:30.979Z,4.82
2023-05-14T07:59:58.171Z,4.00
2023-05-14T08:02:25.422Z,3.58
2023-05-14T08:04:52.607Z,4.10
2023-05-14T08:07:19.704Z,3.80
2023-05-14T08:09:46.863Z,4.93
2023-05-14T08:12:14.452Z,3.75
2023-05-14T08:14:41.610Z,5.47
2023-05-14T08:17:08.810Z,3.20
2023-05-14T08:19:36.123Z,3.58
2023-05-14T08:22:03.672Z,4.07
2023-05-14T08:24:30.779Z,6.72
2023-05-14T08:26:57.953Z,3.10
2023-05-14T08:29:25.874Z,2.92
2023-05-14T08:31:53.024Z,2.90
2023-05-14T08:34:20.128Z,2.83
2023-05-14T08:36:47.228Z,2.80
2023-05-14T08:39:14.427Z,2.72
2023-05-14T08:41:41.525Z,2.97
2023-05-14T08:44:11.724Z,2.75
2023-05-14T08:46:39.095Z,3.58
2023-05-14T08:49:13.244Z,4.07
2023-05-14T08:51:40.754Z,4.15
2023-05-14T08:54:07.917Z,3.17
2023-05-14T08:56:35.215Z,2.58
2023-05-14T08:59:02.419Z,2.95
2023-05-14T09:01:29.871Z,2.28
2023-05-14T09:03:57.016Z,2.40
2023-05-14T09:06:24.208Z,2.72
2023-05-14T09:08:51.595Z,2.58
2023-05-14T09:11:18.761Z,4.10
2023-05-14T09:13:45.917Z,3.03
2023-05-14T09:16:13.155Z,2.95
2023-05-14T09:18:42.965Z,1.83
2023-05-14T09:21:10.125Z,2.25
2023-05-14T09:23:37.198Z,1.50
2023-05-14T09:26:07.334Z,1.70
2023-05-14T09:28:34.449Z,1.60
2023-05-14T09:31:01.586Z,1.48
2023-05-14T09:33:29.399Z,2.70
2023-05-14T09:36:00.668Z,1.80
2023-05-14T09:38:34.107Z,2.40
2023-05-14T09:41:01.372Z,1.50
2023-05-14T09:43:28.477Z,1.50
2023-05-14T09:45:55.586Z,1.70
2023-05-14T09:48:23.065Z,2.63
2023-05-14T09:50:51.578Z,2.03
2023-05-14T09:53:18.760Z,1.20
2023-05-14T09:55:45.979Z,1.95
2023-05-14T09:58:16.185Z,1.55
2023-05-14T10:00:46.943Z,1.35
2023-05-14T10:03:17.963Z,1.30
2023-05-14T10:05:46.809Z,1.48
2023-05-14T10:08:14.600Z,1.60
2023-05-14T10:10:42.062Z,1.35
2023-05-14T10:13:12.491Z,2.08
2023-05-14T10:15:49.475Z,1.35
2023-05-14T10:18:23.857Z,1.05
2023-05-14T10:20:54.443Z,1.30
2023-05-14T10:23:21.594Z,1.30
2023-05-14T10:25:48.710Z,1.40
2023-05-14T10:28:16.111Z,1.50
2023-05-14T10:30:46.586Z,1.70
2023-05-14T10:33:15.502Z,1.60
2023-05-14T10:35:52.272Z,1.60
2023-05-14T10:38:23.118Z,1.20
2023-05-14T10:40:53.556Z,1.67
2023-05-14T10:43:21.306Z,1.40
2023-05-14T10:45:48.470Z,1.55
2023-05-14T10:48:15.998Z,1.50
2023-05-14T10:50:43.249Z,1.65
2023-05-14T10:53:14.002Z,1.50
2023-05-14T10:55:42.777Z,1.80
2023-05-14T10:58:10.145Z,1.83
2023-05-14T11:00:37.351Z,2.10
2023-05-14T11:03:05.046Z,1.33
2023-05-14T11:05:32.245Z,1.70
2023-05-14T11:07:59.515Z,1.60
2023-05-14T11:10:28.370Z,2.47
2023-05-14T11:12:55.506Z,5.07
2023-05-14T11:15:23.045Z,2.10
2023-05-14T11:17:50.439Z,2.47
2023-05-14T11:20:17.884Z,2.28
2023-05-14T11:22:45.400Z,1.92
2023-05-14T11:25:14.729Z,2.05
2023-05-14T11:27:42.973Z,1.90
2023-05-14T11:30:14.259Z,1.50
2023-05-14T11:32:41.607Z,4.03
2023-05-14T11:35:09.147Z,1.80
2023-05-14T11:37:36.273Z,2.90
2023-05-14T11:40:04.951Z,3.00
2023-05-14T11:42:32.074Z,5.00
2023-05-14T11:44:59.708Z,1.98
2023-05-14T11:47:26.875Z,2.70
2023-05-14T11:49:54.036Z,1.90
2023-05-14T11:52:22.056Z,2.50
2023-05-14T11:54:50.726Z,2.45
2023-05-14T11:57:18.947Z,2.70
2023-05-14T11:59:46.328Z,2.30
2023-05-14T12:02:14.024Z,2.17
2023-05-14T12:04:41.629Z,3.65
2023-05-14T12:07:18.036Z,6.57
2023-05-14T12:09:49.668Z,2.42
2023-05-14T12:12:20.540Z,8.38
2023-05-14T12:14:47.967Z,6.78
2023-05-14T12:17:18.801Z,2.08
2023-05-14T12:19:46.438Z,2.00
2023-05-14T12:22:14.708Z,2.92
2023-05-14T12:24:41.924Z,1.52
2023-05-14T12:27:09.637Z,1.77
2023-05-14T12:29:40.040Z,1.80
2023-05-14T12:32:10.938Z,2.20
2023-05-14T12:34:38.659Z,2.60
2023-05-14T12:37:06.370Z,2.70
2023-05-14T12:39:33.868Z,1.30
2023-05-14T12:42:01.614Z,1.40
2023-05-14T12:44:28.941Z,1.73
2023-05-14T12:46:56.354Z,1.30
2023-05-14T12:49:23.455Z,1.30
2023-05-14T12:51:54.799Z,3.67
2023-05-14T12:54:31.765Z,1.67
2023-05-14T12:56:59.091Z,1.63
2023-05-14T12:59:26.218Z,1.52
2023-05-14T13:01:53.383Z,1.50
2023-05-14T13:04:20.520Z,1.50
2023-05-14T13:06:47.739Z,1.52
2023-05-14T13:09:14.866Z,1.40
2023-05-14T13:11:41.987Z,1.20
2023-05-14T13:14:09.132Z,1.33
2023-05-14T13:16:36.353Z,1.30
2023-05-14T13:19:03.538Z,1.60
2023-05-14T13:21:31.241Z,1.42
2023-05-14T13:23:58.397Z,1.40
2023-05-14T13:26:28.168Z,1.60
2023-05-14T13:28:55.343Z,1.08
2023-05-14T13:31:22.571Z,1.60
2023-05-14T13:33:49.713Z,1.58
2023-05-14T13:36:16.889Z,1.20
2023-05-14T13:38:45.811Z,1.40
2023-05-14T13:41:12.949Z,1.58
2023-05-14T13:43:40.136Z,1.50
2023-05-14T13:46:07.514Z,1.55
2023-05-14T13:48:36.385Z,1.70
2023-05-14T13:51:03.689Z,1.60
2023-05-14T13:53:30.872Z,1.50
2023-05-14T13:55:58.568Z,1.50
2023-05-14T13:58:26.139Z,1.63
2023-05-14T14:00:53.436Z,1.27
2023-05-14T14:03:20.661Z,1.33
2023-05-14T14:05:47.790Z,1.38
2023-05-14T14:08:23.238Z,1.38
2023-05-14T14:10:51.401Z,1.42
2023-05-14T14:13:18.557Z,1.35
2023-05-14T14:15:45.790Z,1.48
2023-05-14T14:18:12.921Z,1.40
2023-05-14T14:20:40.071Z,2.17
2023-05-14T14:23:07.503Z,2.15
2023-05-14T14:25:34.606Z,1.65
2023-05-14T14:28:01.717Z,1.90
2023-05-14T14:30:28.892Z,1.60
2023-05-14T14:32:56.083Z,1.55
2023-05-14T14:35:23.750Z,1.35
2023-05-14T14:37:53.637Z,1.60
2023-05-14T14:40:21.052Z,1.52
2023-05-14T14:42:48.155Z,1.45
2023-05-14T14:45:15.262Z,1.88
2023-05-14T14:47:46.114Z,1.83
2023-05-14T14:50:13.702Z,1.77
2023-05-14T14:52:41.079Z,1.65
2023-05-14T14:55:08.428Z,1.80
2023-05-14T14:57:35.728Z,2.10
2023-05-14T15:00:02.942Z,3.20
2023-05-14T15:02:30.145Z,2.25
2023-05-14T15:04:57.328Z,2.40
2023-05-14T15:07:24.474Z,1.80
2023-05-14T15:09:51.645Z,1.70
2023-05-14T15:12:19.182Z,2.20
2023-05-14T15:14:46.309Z,1.90
2023-05-14T15:17:13.418Z,1.50
2023-05-14T15:19:40.673Z,1.50
2023-05-14T15:22:07.772Z,1.73
2023-05-14T15:24:34.956Z,1.80
2023-05-14T15:27:02.125Z,1.80
2023-05-14T15:29:29.437Z,1.75
2023-05-14T15:31:56.670Z,1.70
2023-05-14T15:34:23.878Z,1.65
2023-05-14T15:36:51.258Z,1.58
2023-05-14T15:39:18.379Z,1.60
2023-05-14T15:41:45.851Z,1.83
2023-05-14T15:44:12.980Z,1.70
2023-05-14T15:46:40.172Z,1.70
2023-05-14T15:49:07.380Z,1.80
2023-05-14T15:51:34.862Z,2.58
2023-05-14T15:54:01.995Z,2.30
2023-05-14T15:56:29.180Z,1.08
2023-05-14T15:58:56.335Z,1.30
2023-05-14T16:01:23.682Z,1.90
2023-05-14T16:03:50.974Z,2.78
2023-05-14T16:06:18.123Z,3.17
2023-05-14T16:08:45.285Z,4.00
2023-05-14T16:11:12.417Z,3.88
2023-05-14T16:13:41.463Z,0.80
2023-05-14T16:16:09.045Z,1.10
2023-05-14T16:18:36.231Z,1.02
2023-05-14T16:21:03.623Z,1.02
2023-05-14T16:23:30.966Z,1.10
2023-05-14T16:25:58.179Z,1.40
2023-05-14T16:28:25.336Z,1.15
2023-05-14T16:30:52.454Z,1.75
2023-05-14T16:33:19.611Z,2.08
2023-05-14T16:35:46.800Z,0.80
2023-05-14T16:38:14.052Z,1.10
2023-05-14T16:40:41.805Z,0.73
2023-05-14T16:43:08.969Z,2.05
2023-05-14T16:45:37.308Z,6.55
2023-05-14T16:48:05.018Z,6.88
2023-05-14T16:50:32.359Z,4.40
2023-05-14T16:52:59.471Z,3.97
2023-05-14T16:55:26.638Z,3.13
2023-05-14T16:57:53.794Z,6.35
2023-05-14T17:00:21.046Z,17.23
2023-05-14T17:02:49.762Z,5.00
2023-05-14T17:05:17.061Z,3.15
2023-05-14T17:07:44.228Z,9.57
2023-05-14T17:10:11.587Z,8.90
2023-05-14T17:12:38.735Z,7.30
2023-05-14T17:15:09.001Z,38.38
2023-05-14T17:17:36.184Z,13.18
2023-05-14T17:20:05.979Z,14.75
2023-05-14T17:22:33.175Z,3.67
2023-05-14T17:25:00.362Z,6.50
2023-05-14T17:27:29.211Z,7.32
2023-05-14T17:29:56.320Z,14.43
2023-05-14T17:32:23.558Z,25.27
2023-05-14T17:34:50.719Z,43.53
2023-05-14T17:37:17.985Z,54.90
2023-05-14T17:39:45.210Z,34.97
2023-05-14T17:42:12.470Z,18.42
2023-05-14T17:44:39.599Z,10.52
2023-05-14T17:47:08.287Z,1.77
2023-05-14T17:49:35.735Z,1.67
2023-05-14T17:52:02.947Z,2.17
2023-05-14T17:54:30.269Z,16.65
2023-05-14T17:56:57.388Z,10.50
2023-05-14T17:59:24.646Z,14.27
2023-05-14T18:01:51.944Z,4.18
2023-05-14T18:04:19.756Z,7.78
2023-05-14T18:06:46.867Z,3.90
2023-05-14T18:09:14.050Z,4.50
2023-05-14T18:11:41.146Z,3.85
2023-05-14T18:14:08.239Z,2.75
2023-05-14T18:16:35.926Z,2.47
2023-05-14T18:19:03.107Z,2.53
2023-05-14T18:21:30.786Z,2.75
2023-05-14T18:23:57.895Z,1.90
2023-05-14T18:26:25.028Z,2.03
2023-05-14T18:28:52.178Z,1.85
2023-05-14T18:31:19.338Z,3.80
2023-05-14T18:33:46.599Z,2.55
2023-05-14T18:36:13.718Z,4.28
2023-05-14T18:38:40.952Z,4.75
2023-05-14T18:41:08.057Z,1.92
2023-05-14T18:43:35.204Z,3.08
2023-05-14T18:46:02.453Z,3.17
2023-05-14T18:48:29.603Z,10.30
2023-05-14T18:50:56.725Z,20.30
2023-05-14T18:53:23.920Z,18.15
2023-05-14T18:55:51.110Z,15.27
2023-05-14T18:58:18.273Z,13.65
2023-05-14T19:00:45.504Z,9.02
2023-05-14T19:03:12.717Z,5.80
2023-05-14T19:05:39.959Z,2.47
2023-05-14T19:08:07.323Z,4.20
2023-05-14T19:10:34.789Z,2.95
2023-05-14T19:13:02.160Z,2.30
2023-05-14T19:15:29.346Z,2.72
2023-05-14T19:17:56.509Z,2.70
2023-05-14T19:20:23.712Z,2.63
2023-05-14T19:22:51.001Z,2.50
2023-05-14T19:25:18.181Z,3.30
2023-05-14T19:27:45.660Z,1.90
2023-05-14T19:30:13.164Z,2.33
2023-05-14T19:32:40.341Z,2.47
2023-05-14T19:35:07.523Z,4.88
2023-05-14T19:37:34.745Z,3.50
2023-05-14T19:40:01.909Z,3.20
2023-05-14T19:42:29.041Z,4.72
2023-05-14T19:44:56.278Z,8.75
2023-05-14T19:47:23.529Z,11.57
2023-05-14T19:49:50.810Z,67.63
2023-05-14T19:52:18.004Z,52.25
2023-05-14T19:54:45.200Z,28.25
2023-05-14T19:57:12.399Z,17.95
2023-05-14T19:59:40.401Z,37.78
2023-05-14T20:02:09.190Z,42.63
2023-05-14T20:04:39.984Z,42.00
2023-05-14T20:07:07.190Z,25.17
2023-05-14T20:09:34.326Z,19.58
2023-05-14T20:12:01.459Z,17.83
2023-05-14T20:14:28.589Z,10.93
2023-05-14T20:16:57.993Z,9.95
2023-05-14T20:19:26.620Z,9.80
2023-05-14T20:21:53.777Z,12.18
2023-05-14T20:24:20.931Z,16.88
2023-05-14T20:26:48.076Z,16.98
2023-05-14T20:29:15.184Z,23.27
2023-05-14T20:31:42.267Z,20.40
2023-05-14T20:34:09.501Z,17.40
2023-05-14T20:36:37.446Z,13.93
2023-05-14T20:39:06.180Z,16.25
2023-05-14T20:41:33.316Z,16.15
2023-05-14T20:44:00.597Z,14.40
2023-05-14T20:46:27.781Z,14.38
2023-05-14T20:48:55.768Z,16.60
2023-05-14T20:51:22.934Z,18.00
2023-05-14T20:53:50.049Z,15.43
2023-05-14T20:56:17.155Z,11.93
2023-05-14T20:58:44.373Z,12.02
2023-05-14T21:01:11.498Z,18.80
2023-05-14T21:03:38.742Z,18.60
2023-05-14T21:06:05.982Z,18.55
2023-05-14T21:08:34.910Z,20.67
2023-05-14T21:11:02.035Z,19.83
2023-05-14T21:13:29.186Z,19.77
2023-05-14T21:15:56.409Z,20.17
2023-05-14T21:18:26.971Z,18.88
2023-05-14T21:20:54.221Z,13.20
2023-05-14T21:23:21.386Z,13.10
2023-05-14T21:25:48.500Z,11.20
2023-05-14T21:28:15.614Z,14.60
2023-05-14T21:30:42.730Z,16.45
2023-05-14T21:33:09.961Z,10.70
2023-05-14T21:35:37.200Z,9.02
2023-05-14T21:38:04.533Z,9.20
2023-05-14T21:40:31.634Z,12.65
2023-05-14T21:42:58.812Z,13.23
2023-05-14T21:45:26.226Z,13.02
2023-05-14T21:47:53.539Z,12.82
2023-05-14T21:50:20.972Z,11.38
2023-05-14T21:52:48.100Z,11.23
2023-05-14T21:55:15.277Z,10.70
2023-05-14T21:57:42.397Z,11.50
2023-05-14T22:00:12.653Z,10.43
2023-05-14T22:02:40.257Z,11.35
2023-05-14T22:05:07.529Z,8.73
2023-05-14T22:07:34.646Z,9.98
2023-05-14T22:10:02.235Z,9.93
2023-05-14T22:12:29.381Z,9.93
2023-05-14T22:14:56.461Z,10.60
2023-05-14T22:17:23.646Z,12.40
2023-05-14T22:19:50.863Z,11.30
2023-05-14T22:22:17.960Z,12.70
2023-05-14T22:24:45.089Z,11.55
2023-05-14T22:27:12.225Z,11.10
2023-05-14T22:29:39.388Z,10.00
2023-05-14T22:32:08.106Z,11.18
2023-05-14T22:34:35.276Z,11.55
2023-05-14T22:37:02.979Z,17.80
2023-05-14T22:39:30.292Z,14.93
2023-05-14T22:41:57.453Z,13.27
2023-05-14T22:44:24.576Z,12.95
2023-05-14T22:46:51.846Z,13.52
2023-05-14T22:49:19.034Z,12.43
2023-05-14T22:51:46.170Z,13.13
2023-05-14T22:54:13.260Z,10.40
2023-05-14T22:56:40.501Z,12.00
2023-05-14T22:59:07.607Z,11.23
2023-05-14T23:01:34.804Z,10.20
2023-05-14T23:04:02.015Z,10.95
2023-05-14T23:06:30.156Z,10.95
2023-05-14T23:08:57.287Z,10.95
2023-05-14T23:11:24.875Z,10.68
2023-05-14T23:13:52.007Z,10.60
2023-05-14T23:16:19.277Z,11.15
2023-05-14T23:18:46.522Z,10.18
2023-05-14T23:21:14.153Z,8.35
2023-05-14T23:23:41.281Z,7.47
2023-05-14T23:26:08.401Z,10.15
2023-05-14T23:28:35.497Z,10.30
2023-05-14T23:31:02.639Z,10.27
2023-05-14T23:33:29.970Z,10.35
2023-05-14T23:35:57.072Z,10.88
2023-05-14T23:38:24.165Z,10.75
2023-05-14T23:40:51.281Z,11.30
2023-05-14T23:43:18.438Z,11.48
2023-05-14T23:45:45.677Z,12.00
2023-05-14T23:48:12.832Z,11.73
2023-05-14T23:50:39.916Z,11.77
2023-05-14T23:53:07.867Z,11.20
2023-05-14T23:55:35.053Z,10.65
2023-05-14T23:58:02.165Z,10.32
